createdAt,value
2022-12-08T00:02:22.048Z,84.82
2022-12-08T00:05:08.312Z,84.81
2022-12-08T00:07:56.714Z,84.38
2022-12-08T00:10:48.569Z,84.48
2022-12-08T00:13:14.478Z,84.90
2022-12-08T00:15:43.020Z,84.87
2022-12-08T00:18:13.301Z,85.25
2022-12-08T00:20:41.958Z,85.72
2022-12-08T00:23:10.584Z,85.85
2022-12-08T00:25:39.249Z,84.98
2022-12-08T00:28:07.973Z,85.36
2022-12-08T00:30:36.541Z,85.47
2022-12-08T00:33:05.238Z,85.66
2022-12-08T00:35:40.093Z,85.40
2022-12-08T00:38:11.565Z,84.58
2022-12-08T00:40:44.479Z,84.34
2022-12-08T00:43:13.198Z,84.22
2022-12-08T00:45:42.142Z,83.44
2022-12-08T00:48:10.975Z,84.30
2022-12-08T00:50:40.903Z,84.57
2022-12-08T00:53:09.809Z,84.24
2022-12-08T00:55:38.418Z,84.40
2022-12-08T00:58:06.968Z,84.21
2022-12-08T01:00:35.567Z,83.98
2022-12-08T01:03:04.170Z,84.55
2022-12-08T01:05:32.766Z,84.58
2022-12-08T01:08:03.023Z,84.99
2022-12-08T01:10:31.708Z,85.09
2022-12-08T01:13:00.393Z,85.14
2022-12-08T01:15:29.022Z,85.48
2022-12-08T01:17:57.669Z,85.34
2022-12-08T01:20:26.639Z,85.32
2022-12-08T01:22:55.261Z,85.16
2022-12-08T01:25:25.505Z,85.54
2022-12-08T01:27:54.569Z,85.24
2022-12-08T01:30:23.239Z,85.41
2022-12-08T01:32:51.959Z,86.08
2022-12-08T01:35:20.594Z,85.86
2022-12-08T01:37:49.279Z,85.96
2022-12-08T01:40:18.501Z,85.48
2022-12-08T01:42:48.564Z,85.73
2022-12-08T01:45:22.854Z,85.33
2022-12-08T01:47:54.387Z,85.43
2022-12-08T01:50:23.842Z,85.76
2022-12-08T01:52:55.929Z,85.60
2022-12-08T01:55:27.259Z,86.71
2022-12-08T01:57:59.878Z,86.78
2022-12-08T02:00:28.498Z,86.24
2022-12-08T02:03:00.663Z,86.19
2022-12-08T02:05:31.293Z,86.20
2022-12-08T02:08:01.685Z,86.23
2022-12-08T02:10:31.929Z,86.31
2022-12-08T02:13:02.893Z,86.19
2022-12-08T02:15:38.086Z,85.67
2022-12-08T02:18:20.934Z,86.76
2022-12-08T02:20:57.433Z,86.88
2022-12-08T02:23:33.156Z,88.55
2022-12-08T02:26:44.846Z,88.41
2022-12-08T02:29:50.633Z,89.27
2022-12-08T02:32:42.253Z,89.35
2022-12-08T02:35:14.062Z,89.52
2022-12-08T02:37:45.434Z,89.63
2022-12-08T02:40:18.603Z,90.16
2022-12-08T02:42:50.867Z,89.87
2022-12-08T02:45:25.580Z,89.69
2022-12-08T02:47:54.326Z,89.57
2022-12-08T02:50:24.506Z,89.90
2022-12-08T02:52:53.081Z,89.96
2022-12-08T02:55:27.835Z,90.43
2022-12-08T02:58:31.955Z,91.05
2022-12-08T03:01:16.018Z,90.86
2022-12-08T03:03:50.626Z,90.69
2022-12-08T03:06:29.131Z,90.45
2022-12-08T03:09:01.394Z,91.01
2022-12-08T03:11:34.583Z,90.64
2022-12-08T03:14:05.042Z,90.43
2022-12-08T03:16:36.721Z,89.33
2022-12-08T03:19:09.921Z,89.38
2022-12-08T03:21:42.290Z,88.90
2022-12-08T03:24:11.615Z,89.04
2022-12-08T03:26:43.334Z,88.74
2022-12-08T03:29:12.243Z,88.52
2022-12-08T03:31:44.686Z,87.99
2022-12-08T03:34:14.680Z,88.33
2022-12-08T03:36:45.690Z,88.18
2022-12-08T03:39:14.703Z,88.34
2022-12-08T03:41:43.307Z,87.99
2022-12-08T03:44:12.124Z,88.57
2022-12-08T03:46:40.793Z,88.51
2022-12-08T03:49:09.423Z,88.25
2022-12-08T03:51:38.218Z,89.13
2022-12-08T03:54:08.370Z,89.97
2022-12-08T03:59:08.638Z,90.37
2022-12-08T04:01:37.435Z,90.31
2022-12-08T04:04:06.504Z,90.97
2022-12-08T04:06:35.237Z,91.50
2022-12-08T04:09:03.852Z,91.32
2022-12-08T04:11:33.931Z,91.38
2022-12-08T04:14:02.575Z,91.20
2022-12-08T04:16:31.508Z,91.95
2022-12-08T04:19:00.349Z,91.88
2022-12-08T04:21:29.243Z,92.14
2022-12-08T04:24:01.228Z,91.96
2022-12-08T04:26:30.263Z,92.16
2022-12-08T04:29:00.441Z,91.93
2022-12-08T04:31:29.181Z,92.10
2022-12-08T04:33:57.968Z,92.28
2022-12-08T04:36:26.765Z,92.07
2022-12-08T04:38:55.445Z,92.28
2022-12-08T04:41:24.101Z,92.25
2022-12-08T04:43:52.710Z,92.07
2022-12-08T04:46:22.878Z,92.28
2022-12-08T04:48:51.517Z,91.96
2022-12-08T04:51:21.189Z,91.47
2022-12-08T04:53:49.787Z,91.74
2022-12-08T04:56:20.770Z,91.87
2022-12-08T04:58:49.576Z,92.11
2022-12-08T05:01:18.217Z,92.23
2022-12-08T05:03:48.344Z,92.28
2022-12-08T05:06:16.972Z,92.46
2022-12-08T05:08:45.873Z,92.44
2022-12-08T05:11:15.134Z,92.73
2022-12-08T05:13:43.879Z,92.94
2022-12-08T05:16:14.520Z,92.53
2022-12-08T05:18:44.248Z,92.31
2022-12-08T05:21:14.249Z,92.44
2022-12-08T05:23:42.989Z,92.42
2022-12-08T05:26:11.629Z,92.57
2022-12-08T05:28:42.274Z,92.62
2022-12-08T05:31:11.729Z,92.84
2022-12-08T05:33:40.527Z,92.38
2022-12-08T05:36:09.966Z,92.74
2022-12-08T05:38:40.011Z,93.00
2022-12-08T05:41:08.826Z,92.75
2022-12-08T05:43:37.664Z,93.03
2022-12-08T05:46:07.227Z,92.55
2022-12-08T05:48:36.008Z,92.75
2022-12-08T05:51:05.535Z,92.73
2022-12-08T05:53:34.438Z,92.61
2022-12-08T05:56:04.633Z,92.55
2022-12-08T05:58:33.288Z,92.58
2022-12-08T06:01:02.217Z,92.49
2022-12-08T06:03:31.278Z,92.39
2022-12-08T06:06:00.078Z,92.63
2022-12-08T06:08:28.730Z,92.20
2022-12-08T06:10:57.633Z,92.18
2022-12-08T06:13:27.698Z,92.16
2022-12-08T06:15:56.289Z,92.30
2022-12-08T06:18:29.683Z,92.15
2022-12-08T06:21:05.565Z,92.54
2022-12-08T06:23:35.242Z,92.46
2022-12-08T06:26:05.448Z,92.58
2022-12-08T06:28:38.976Z,92.75
2022-12-08T06:31:12.536Z,92.58
2022-12-08T06:33:42.127Z,92.68
2022-12-08T06:36:14.661Z,92.87
2022-12-08T06:38:44.214Z,92.63
2022-12-08T06:41:14.946Z,93.17
2022-12-08T06:43:46.215Z,93.03
2022-12-08T06:46:18.874Z,93.26
2022-12-08T06:48:50.711Z,93.33
2022-12-08T06:51:22.948Z,93.18
2022-12-08T06:53:51.646Z,93.38
2022-12-08T06:56:22.465Z,93.63
2022-12-08T06:58:53.240Z,93.74
2022-12-08T07:01:22.164Z,93.60
2022-12-08T07:03:50.995Z,93.85
2022-12-08T07:06:22.060Z,93.91
2022-12-08T07:08:51.110Z,93.97
2022-12-08T07:11:22.168Z,93.82
2022-12-08T07:13:52.759Z,93.67
2022-12-08T07:16:21.567Z,93.75
2022-12-08T07:18:50.343Z,93.46
2022-12-08T07:21:19.606Z,93.48
2022-12-08T07:23:55.775Z,93.70
2022-12-08T07:26:26.953Z,93.76
2022-12-08T07:28:57.111Z,93.82
2022-12-08T07:31:28.536Z,93.88
2022-12-08T07:33:58.036Z,93.94
2022-12-08T07:36:26.968Z,93.92
2022-12-08T07:38:56.822Z,93.79
2022-12-08T07:41:26.815Z,93.51
2022-12-08T07:43:58.124Z,93.78
2022-12-08T07:46:27.492Z,93.76
2022-12-08T07:48:57.074Z,94.30
2022-12-08T07:51:25.904Z,94.36
2022-12-08T07:53:55.439Z,94.54
2022-12-08T07:56:24.959Z,94.61
2022-12-08T07:58:53.762Z,94.62
2022-12-08T08:01:26.000Z,93.99
2022-12-08T08:03:55.473Z,93.89
2022-12-08T08:06:24.382Z,93.97
2022-12-08T08:08:53.163Z,93.94
2022-12-08T08:11:22.081Z,94.15
2022-12-08T08:13:50.910Z,94.04
2022-12-08T08:16:20.233Z,94.05
2022-12-08T08:18:51.289Z,94.22
2022-12-08T08:24:09.814Z,94.34
2022-12-08T08:26:38.654Z,94.05
2022-12-08T08:29:07.510Z,94.24
2022-12-08T08:31:36.539Z,94.49
2022-12-08T08:34:06.815Z,94.75
2022-12-08T08:36:35.543Z,94.21
2022-12-08T08:39:04.719Z,94.03
2022-12-08T08:41:33.415Z,93.41
2022-12-08T08:44:02.232Z,93.47
2022-12-08T08:46:31.079Z,93.23
2022-12-08T08:49:00.034Z,93.09
2022-12-08T08:51:30.162Z,93.01
2022-12-08T08:53:59.301Z,93.18
2022-12-08T08:56:28.021Z,92.98
2022-12-08T08:58:57.040Z,93.11
2022-12-08T09:01:27.416Z,93.28
2022-12-08T09:03:56.684Z,92.60
2022-12-08T09:06:25.957Z,92.93
2022-12-08T09:08:56.162Z,92.46
2022-12-08T09:11:25.131Z,92.16
2022-12-08T09:13:54.449Z,92.51
2022-12-08T09:16:24.098Z,92.98
2022-12-08T09:18:52.995Z,92.76
2022-12-08T09:21:23.683Z,92.77
2022-12-08T09:23:53.533Z,92.51
2022-12-08T09:26:24.080Z,92.28
2022-12-08T09:28:53.464Z,92.15
2022-12-08T09:31:23.214Z,91.79
2022-12-08T09:33:52.739Z,92.30
2022-12-08T09:36:21.819Z,91.48
2022-12-08T09:38:51.634Z,90.54
2022-12-08T09:41:37.527Z,90.09
2022-12-08T09:44:22.576Z,89.69
2022-12-08T09:46:54.240Z,90.57
2022-12-08T09:49:24.992Z,90.00
2022-12-08T09:51:53.820Z,90.24
2022-12-08T09:54:24.146Z,90.33
2022-12-08T09:56:56.221Z,89.64
2022-12-08T09:59:26.977Z,89.51
2022-12-08T10:01:56.725Z,90.00
2022-12-08T10:04:27.244Z,89.14
2022-12-08T10:07:04.629Z,89.25
2022-12-08T10:09:39.889Z,89.35
2022-12-08T10:12:16.915Z,88.69
2022-12-08T10:14:49.168Z,88.27
2022-12-08T10:17:24.244Z,89.12
2022-12-08T10:19:57.024Z,88.68
2022-12-08T10:22:27.292Z,88.17
2022-12-08T10:25:00.795Z,89.32
2022-12-08T10:27:31.151Z,89.17
2022-12-08T10:29:59.931Z,90.50
2022-12-08T10:32:34.987Z,89.17
2022-12-08T10:35:05.165Z,87.00
2022-12-08T10:37:34.057Z,86.51
2022-12-08T10:40:06.224Z,86.11
2022-12-08T10:42:38.726Z,86.48
2022-12-08T10:45:24.308Z,86.73
2022-12-08T10:48:00.252Z,86.61
2022-12-08T10:50:36.609Z,85.09
2022-12-08T10:53:16.141Z,83.24
2022-12-08T10:55:46.532Z,82.25
2022-12-08T10:58:36.572Z,81.81
2022-12-08T11:01:11.009Z,82.79
2022-12-08T11:03:44.851Z,82.58
2022-12-08T11:06:16.685Z,81.44
2022-12-08T11:08:48.920Z,82.06
2022-12-08T11:11:17.865Z,81.50
2022-12-08T11:13:51.346Z,80.61
2022-12-08T11:16:21.222Z,80.48
2022-12-08T11:18:57.774Z,79.06
2022-12-08T11:21:36.459Z,79.68
2022-12-08T11:24:23.051Z,78.79
2022-12-08T11:26:54.576Z,78.45
2022-12-08T11:29:24.748Z,78.57
2022-12-08T11:31:55.818Z,78.97
2022-12-08T11:34:33.304Z,78.94
2022-12-08T11:37:02.323Z,79.17
2022-12-08T11:39:35.365Z,79.37
2022-12-08T11:42:05.318Z,78.99
2022-12-08T11:44:39.078Z,78.77
2022-12-08T11:47:13.314Z,78.93
2022-12-08T11:49:43.093Z,79.51
2022-12-08T11:52:19.186Z,78.82
2022-12-08T11:54:51.538Z,79.18
2022-12-08T11:57:22.583Z,78.74
2022-12-08T11:59:53.429Z,77.65
2022-12-08T12:02:23.296Z,76.92
2022-12-08T12:04:55.431Z,76.61
2022-12-08T12:07:45.406Z,76.23
2022-12-08T12:10:31.836Z,76.17
2022-12-08T12:13:09.729Z,77.23
2022-12-08T12:16:14.279Z,76.58
2022-12-08T12:18:46.359Z,76.34
2022-12-08T12:21:19.291Z,75.52
2022-12-08T12:23:50.787Z,76.40
2022-12-08T12:26:21.441Z,76.41
2022-12-08T12:28:53.042Z,76.94
2022-12-08T12:31:26.757Z,75.29
2022-12-08T12:33:58.754Z,75.66
2022-12-08T12:36:27.548Z,73.69
2022-12-08T12:39:04.030Z,74.21
2022-12-08T12:41:36.878Z,74.12
2022-12-08T12:44:13.645Z,73.76
2022-12-08T12:46:56.003Z,73.46
2022-12-08T12:49:53.234Z,73.29
2022-12-08T12:52:41.544Z,72.54
2022-12-08T12:55:58.421Z,72.90
2022-12-08T12:58:38.643Z,72.37
2022-12-08T13:01:56.467Z,73.02
2022-12-08T13:04:34.679Z,73.26
2022-12-08T13:07:03.785Z,72.14
2022-12-08T13:09:35.105Z,73.07
2022-12-08T13:12:11.179Z,73.11
2022-12-08T13:14:46.422Z,73.35
2022-12-08T13:17:17.763Z,72.82
2022-12-08T13:19:52.065Z,73.17
2022-12-08T13:22:54.651Z,73.83
2022-12-08T13:25:49.180Z,74.14
2022-12-08T13:28:27.195Z,74.47
2022-12-08T13:30:57.871Z,74.46
2022-12-08T13:33:29.547Z,74.24
2022-12-08T13:36:22.713Z,73.66
2022-12-08T13:38:55.793Z,73.49
2022-12-08T13:41:35.982Z,73.40
2022-12-08T13:45:03.595Z,72.98
2022-12-08T13:58:33.228Z,73.66
2022-12-08T14:01:06.520Z,72.63
2022-12-08T14:03:45.122Z,72.80
2022-12-08T14:06:29.938Z,73.25
2022-12-08T14:09:08.726Z,73.22
2022-12-08T14:11:41.288Z,73.07
2022-12-08T14:14:27.241Z,73.56
2022-12-08T14:17:04.884Z,72.91
2022-12-08T14:19:35.098Z,72.28
2022-12-08T14:22:11.025Z,72.34
2022-12-08T14:24:41.844Z,72.10
2022-12-08T14:27:13.635Z,72.22
2022-12-08T14:29:44.553Z,72.48
2022-12-08T14:32:30.396Z,73.18
2022-12-08T14:35:02.601Z,72.42
2022-12-08T14:37:34.415Z,71.99
2022-12-08T14:40:07.073Z,72.98
2022-12-08T14:42:45.143Z,73.52
2022-12-08T14:45:16.106Z,74.20
2022-12-08T14:47:45.617Z,74.29
2022-12-08T14:50:40.610Z,74.81
2022-12-08T14:53:15.082Z,74.30
2022-12-08T14:55:46.394Z,74.74
2022-12-08T14:58:22.003Z,74.56
2022-12-08T15:00:52.271Z,73.95
2022-12-08T15:03:23.655Z,74.61
2022-12-08T15:05:53.604Z,73.77
2022-12-08T15:08:22.266Z,73.79
2022-12-08T15:11:28.681Z,74.17
2022-12-08T15:13:57.634Z,74.56
2022-12-08T15:16:28.744Z,74.22
2022-12-08T15:19:09.687Z,74.90
2022-12-08T15:21:40.696Z,74.43
2022-12-08T15:24:12.715Z,75.17
2022-12-08T15:26:46.487Z,75.59
2022-12-08T15:29:21.182Z,75.56
2022-12-08T15:31:50.226Z,75.78
2022-12-08T15:34:19.165Z,75.63
2022-12-08T15:36:48.153Z,75.29
2022-12-08T15:39:26.784Z,74.99
2022-12-08T15:41:56.723Z,74.92
2022-12-08T15:44:25.494Z,73.51
2022-12-08T15:46:54.908Z,72.87
2022-12-08T15:49:25.026Z,72.54
2022-12-08T15:52:03.472Z,73.25
2022-12-08T15:54:39.362Z,71.62
2022-12-08T15:57:20.428Z,71.42
2022-12-08T15:59:54.582Z,73.17
2022-12-08T16:02:25.281Z,72.82
2022-12-08T16:05:40.149Z,73.49
2022-12-08T16:07:43.107Z,73.75
2022-12-08T16:10:17.947Z,73.42
2022-12-08T16:13:56.139Z,73.49
2022-12-08T16:16:00.697Z,72.15
2022-12-08T16:18:32.503Z,71.31
2022-12-08T16:21:41.722Z,71.67
2022-12-08T16:23:51.035Z,72.38
2022-12-08T16:27:06.911Z,70.81
2022-12-08T16:29:17.703Z,70.33
2022-12-08T16:31:46.616Z,70.48
2022-12-08T16:34:15.537Z,70.21
2022-12-08T16:36:44.200Z,70.47
2022-12-08T16:39:14.875Z,70.13
2022-12-08T16:42:01.096Z,70.53
2022-12-08T16:44:31.348Z,70.54
2022-12-08T16:46:59.978Z,70.10
2022-12-08T16:49:28.561Z,70.85
2022-12-08T16:51:57.101Z,70.59
2022-12-08T16:54:25.744Z,71.06
2022-12-08T16:56:54.346Z,70.53
2022-12-08T16:59:23.115Z,70.60
2022-12-08T17:01:53.119Z,69.94
2022-12-08T17:04:37.208Z,70.13
2022-12-08T17:07:06.063Z,70.78
2022-12-08T17:09:34.722Z,70.61
2022-12-08T17:12:04.516Z,70.87
2022-12-08T17:14:35.320Z,70.66
2022-12-08T17:17:06.288Z,70.59
2022-12-08T17:19:35.676Z,71.37
2022-12-08T17:22:04.614Z,70.77
2022-12-08T17:24:33.934Z,71.02
2022-12-08T17:27:04.541Z,70.90
2022-12-08T17:29:34.223Z,71.75
2022-12-08T17:32:04.621Z,71.42
2022-12-08T17:34:33.349Z,71.53
2022-12-08T17:37:02.062Z,71.30
2022-12-08T17:39:30.707Z,71.49
2022-12-08T17:41:59.400Z,70.99
2022-12-08T17:44:28.818Z,71.40
2022-12-08T17:46:57.567Z,71.17
2022-12-08T17:49:29.598Z,71.12
2022-12-08T17:51:59.916Z,71.21
2022-12-08T17:54:29.188Z,71.50
2022-12-08T17:56:58.836Z,71.44
2022-12-08T17:59:28.178Z,72.03
2022-12-08T18:01:57.948Z,71.40
2022-12-08T18:04:28.746Z,71.26
2022-12-08T18:06:59.383Z,71.47
2022-12-08T18:09:28.082Z,71.33
2022-12-08T18:11:56.742Z,71.53
2022-12-08T18:14:25.847Z,71.75
2022-12-08T18:16:54.703Z,71.29
2022-12-08T18:19:23.601Z,72.41
2022-12-08T18:21:54.596Z,71.18
2022-12-08T18:24:25.058Z,71.61
2022-12-08T18:26:55.109Z,71.28
2022-12-08T18:29:24.312Z,71.61
2022-12-08T18:31:53.614Z,71.94
2022-12-08T18:34:22.314Z,72.20
2022-12-08T18:36:51.052Z,72.56
2022-12-08T18:39:24.981Z,72.61
2022-12-08T18:41:54.665Z,72.88
2022-12-08T18:44:23.557Z,73.08
2022-12-08T18:46:52.467Z,73.18
2022-12-08T18:49:21.451Z,74.10
2022-12-08T18:51:50.054Z,73.99
2022-12-08T18:54:22.017Z,73.92
2022-12-08T18:56:54.665Z,74.36
2022-12-08T18:59:23.810Z,75.03
2022-12-08T19:01:52.610Z,75.07
2022-12-08T19:04:29.194Z,75.33
2022-12-08T19:06:58.835Z,75.60
2022-12-08T19:09:28.986Z,75.24
2022-12-08T19:11:59.476Z,74.97
2022-12-08T19:14:30.259Z,75.29
2022-12-08T19:16:59.105Z,75.11
2022-12-08T19:19:28.054Z,76.17
2022-12-08T19:21:56.796Z,76.51
2022-12-08T19:24:25.818Z,76.42
2022-12-08T19:26:54.553Z,76.28
2022-12-08T19:29:24.545Z,76.14
2022-12-08T19:31:53.417Z,75.88
2022-12-08T19:34:22.099Z,76.10
2022-12-08T19:36:50.976Z,77.32
2022-12-08T19:39:38.691Z,77.32
2022-12-08T19:42:31.807Z,77.47
2022-12-08T19:45:06.799Z,76.94
2022-12-08T19:47:35.329Z,77.39
2022-12-08T19:50:21.410Z,76.89
2022-12-08T19:52:50.056Z,76.98
2022-12-08T19:55:19.048Z,77.38
2022-12-08T19:57:47.729Z,77.08
2022-12-08T20:00:19.241Z,76.72
2022-12-08T20:02:48.436Z,75.98
2022-12-08T20:05:17.964Z,76.68
2022-12-08T20:07:46.957Z,76.11
2022-12-08T20:10:17.861Z,75.86
2022-12-08T20:12:46.551Z,75.54
2022-12-08T20:15:17.140Z,75.90
2022-12-08T20:17:45.858Z,75.39
2022-12-08T20:20:15.370Z,73.97
2022-12-08T20:22:45.296Z,73.92
2022-12-08T20:25:14.303Z,73.42
2022-12-08T20:27:43.524Z,73.00
2022-12-08T20:30:17.052Z,73.27
2022-12-08T20:32:47.688Z,72.47
2022-12-08T20:35:16.606Z,72.54
2022-12-08T20:37:45.963Z,72.23
2022-12-08T20:40:15.006Z,72.17
2022-12-08T20:42:44.024Z,72.44
2022-12-08T20:45:13.082Z,71.75
2022-12-08T20:47:41.820Z,72.78
2022-12-08T20:50:12.844Z,72.06
2022-12-08T20:52:41.816Z,72.33
2022-12-08T20:55:11.585Z,71.92
2022-12-08T20:57:40.228Z,72.82
2022-12-08T21:00:10.575Z,72.00
2022-12-08T21:02:45.107Z,72.33
2022-12-08T21:05:18.444Z,72.13
2022-12-08T21:07:48.024Z,73.17
2022-12-08T21:10:17.373Z,72.62
2022-12-08T21:12:46.350Z,72.86
2022-12-08T21:15:15.215Z,72.64
2022-12-08T21:17:44.134Z,72.53
2022-12-08T21:20:13.061Z,72.06
2022-12-08T21:22:43.230Z,72.16
2022-12-08T21:25:12.277Z,72.10
2022-12-08T21:27:41.289Z,72.35
2022-12-08T21:30:11.630Z,71.45
2022-12-08T21:32:41.260Z,71.43
2022-12-08T21:35:10.855Z,70.77
2022-12-08T21:37:39.702Z,70.53
2022-12-08T21:40:12.856Z,70.93
2022-12-08T21:42:45.017Z,70.80
2022-12-08T21:45:16.230Z,70.89
2022-12-08T21:47:45.830Z,70.50
2022-12-08T21:50:15.498Z,70.66
2022-12-08T21:52:46.436Z,71.08
2022-12-08T21:55:19.115Z,71.12
2022-12-08T21:57:48.499Z,71.33
2022-12-08T22:00:19.282Z,71.61
2022-12-08T22:02:48.847Z,71.29
2022-12-08T22:05:18.345Z,71.07
2022-12-08T22:07:47.580Z,70.78
2022-12-08T22:10:17.766Z,71.21
2022-12-08T22:12:46.699Z,70.57
2022-12-08T22:15:15.557Z,70.82
2022-12-08T22:17:45.640Z,71.15
2022-12-08T22:20:16.540Z,71.09
2022-12-08T22:22:45.572Z,71.54
2022-12-08T22:25:14.565Z,71.48
2022-12-08T22:27:44.491Z,72.03
2022-12-08T22:30:13.584Z,71.86
2022-12-08T22:32:42.712Z,72.26
2022-12-08T22:35:12.113Z,72.54
2022-12-08T22:37:40.837Z,73.16
2022-12-08T22:40:11.186Z,73.39
2022-12-08T22:42:40.275Z,73.40
2022-12-08T22:45:11.596Z,73.41
2022-12-08T22:47:40.284Z,73.71
2022-12-08T22:50:09.590Z,73.79
2022-12-08T22:52:38.841Z,73.79
2022-12-08T22:55:08.644Z,73.82
2022-12-08T22:57:37.369Z,73.84
2022-12-08T23:00:07.565Z,73.88
2022-12-08T23:02:38.793Z,73.92
2022-12-08T23:05:08.158Z,73.80
2022-12-08T23:07:37.098Z,74.16
2022-12-08T23:10:07.712Z,74.68
2022-12-08T23:12:37.166Z,74.13
2022-12-08T23:15:07.171Z,74.35
2022-12-08T23:17:37.365Z,74.00
2022-12-08T23:20:07.431Z,73.87
2022-12-08T23:22:36.525Z,74.19
2022-12-08T23:25:06.171Z,74.24
2022-12-08T23:27:35.166Z,74.36
2022-12-08T23:30:04.501Z,74.18
2022-12-08T23:32:33.686Z,74.70
2022-12-08T23:35:03.995Z,74.81
2022-12-08T23:37:33.030Z,75.13
2022-12-08T23:40:01.879Z,75.04
2022-12-08T23:42:31.125Z,75.33
2022-12-08T23:44:59.864Z,75.64
2022-12-08T23:47:28.937Z,76.05
2022-12-08T23:49:57.860Z,76.38
2022-12-08T23:52:28.024Z,76.40
2022-12-08T23:54:57.126Z,76.90
2022-12-08T23:57:25.923Z,77.18
2022-12-08T23:59:54.571Z,77.37
